sensor_id;sensor_type;location;lat;lon;timestamp;P1;durP1;ratioP1;P2;durP2;ratioP2
53281;SDS011;39167;52.794;6.892;2022-07-23T00:01:16;4.22;;;2.00;;
53281;SDS011;39167;52.794;6.892;2022-07-23T00:03:42;7.22;;;2.00;;
53281;SDS011;39167;52.794;6.892;2022-07-23T00:06:07;3.13;;;1.55;;
53281;SDS011;39167;52.794;6.892;2022-07-23T00:08:33;2.58;;;1.42;;
53281;SDS011;39167;52.794;6.892;2022-07-23T00:10:59;8.25;;;1.92;;
53281;SDS011;39167;52.794;6.892;2022-07-23T00:13:25;5.30;;;1.48;;
53281;SDS011;39167;52.794;6.892;2022-07-23T00:15:51;3.10;;;1.70;;
53281;SDS011;39167;52.794;6.892;2022-07-23T00:18:17;4.75;;;2.30;;
53281;SDS011;39167;52.794;6.892;2022-07-23T00:20:43;4.93;;;1.95;;
53281;SDS011;39167;52.794;6.892;2022-07-23T00:23:09;4.40;;;1.88;;
53281;SDS011;39167;52.794;6.892;2022-07-23T00:25:35;3.65;;;1.60;;
53281;SDS011;39167;52.794;6.892;2022-07-23T00:28:01;6.28;;;2.05;;
53281;SDS011;39167;52.794;6.892;2022-07-23T00:30:27;3.75;;;1.92;;
53281;SDS011;39167;52.794;6.892;2022-07-23T00:32:58;5.35;;;1.83;;
53281;SDS011;39167;52.794;6.892;2022-07-23T00:35:29;6.03;;;1.85;;
53281;SDS011;39167;52.794;6.892;2022-07-23T00:37:57;6.25;;;2.20;;
53281;SDS011;39167;52.794;6.892;2022-07-23T00:40:23;4.78;;;2.03;;
53281;SDS011;39167;52.794;6.892;2022-07-23T00:42:49;4.22;;;2.40;;
53281;SDS011;39167;52.794;6.892;2022-07-23T00:45:15;5.78;;;1.95;;
53281;SDS011;39167;52.794;6.892;2022-07-23T00:47:41;6.63;;;2.55;;
53281;SDS011;39167;52.794;6.892;2022-07-23T00:50:07;4.07;;;1.88;;
53281;SDS011;39167;52.794;6.892;2022-07-23T00:52:34;3.13;;;2.08;;
53281;SDS011;39167;52.794;6.892;2022-07-23T00:55:00;5.82;;;2.42;;
53281;SDS011;39167;52.794;6.892;2022-07-23T00:57:27;4.93;;;2.05;;
53281;SDS011;39167;52.794;6.892;2022-07-23T00:59:52;3.60;;;2.30;;
53281;SDS011;39167;52.794;6.892;2022-07-23T01:02:18;2.90;;;2.00;;
53281;SDS011;39167;52.794;6.892;2022-07-23T01:04:44;4.55;;;2.35;;
53281;SDS011;39167;52.794;6.892;2022-07-23T01:07:10;7.18;;;2.60;;
53281;SDS011;39167;52.794;6.892;2022-07-23T01:09:36;6.15;;;2.90;;
53281;SDS011;39167;52.794;6.892;2022-07-23T01:12:02;4.03;;;2.63;;
53281;SDS011;39167;52.794;6.892;2022-07-23T01:14:28;5.03;;;2.60;;
53281;SDS011;39167;52.794;6.892;2022-07-23T01:16:54;5.00;;;3.05;;
53281;SDS011;39167;52.794;6.892;2022-07-23T01:19:20;6.88;;;3.13;;
53281;SDS011;39167;52.794;6.892;2022-07-23T01:21:46;4.43;;;3.05;;
53281;SDS011;39167;52.794;6.892;2022-07-23T01:24:13;7.47;;;3.15;;
53281;SDS011;39167;52.794;6.892;2022-07-23T01:26:44;7.78;;;2.95;;
53281;SDS011;39167;52.794;6.892;2022-07-23T01:29:10;8.82;;;3.58;;
53281;SDS011;39167;52.794;6.892;2022-07-23T01:31:36;4.70;;;3.53;;
53281;SDS011;39167;52.794;6.892;2022-07-23T01:34:02;7.00;;;3.88;;
53281;SDS011;39167;52.794;6.892;2022-07-23T01:36:29;7.40;;;4.00;;
53281;SDS011;39167;52.794;6.892;2022-07-23T01:38:54;10.15;;;4.35;;
53281;SDS011;39167;52.794;6.892;2022-07-23T01:41:20;6.32;;;4.15;;
53281;SDS011;39167;52.794;6.892;2022-07-23T01:43:46;7.88;;;4.05;;
53281;SDS011;39167;52.794;6.892;2022-07-23T01:46:12;7.72;;;4.10;;
53281;SDS011;39167;52.794;6.892;2022-07-23T01:48:38;6.53;;;3.95;;
53281;SDS011;39167;52.794;6.892;2022-07-23T01:51:04;7.95;;;3.85;;
53281;SDS011;39167;52.794;6.892;2022-07-23T01:53:30;8.50;;;3.42;;
53281;SDS011;39167;52.794;6.892;2022-07-23T01:55:58;6.93;;;3.72;;
53281;SDS011;39167;52.794;6.892;2022-07-23T01:58:25;6.38;;;3.50;;
53281;SDS011;39167;52.794;6.892;2022-07-23T02:00:52;6.45;;;4.28;;
53281;SDS011;39167;52.794;6.892;2022-07-23T02:03:18;7.13;;;3.65;;
53281;SDS011;39167;52.794;6.892;2022-07-23T02:05:44;5.25;;;3.10;;
53281;SDS011;39167;52.794;6.892;2022-07-23T02:08:09;6.40;;;3.33;;
53281;SDS011;39167;52.794;6.892;2022-07-23T02:10:35;8.25;;;3.95;;
53281;SDS011;39167;52.794;6.892;2022-07-23T02:13:01;8.07;;;4.15;;
53281;SDS011;39167;52.794;6.892;2022-07-23T02:15:27;8.07;;;3.70;;
53281;SDS011;39167;52.794;6.892;2022-07-23T02:17:54;5.40;;;3.47;;
53281;SDS011;39167;52.794;6.892;2022-07-23T02:20:21;5.82;;;3.22;;
53281;SDS011;39167;52.794;6.892;2022-07-23T02:22:46;6.65;;;3.47;;
53281;SDS011;39167;52.794;6.892;2022-07-23T02:25:12;5.07;;;3.17;;
53281;SDS011;39167;52.794;6.892;2022-07-23T02:27:38;7.75;;;3.45;;
53281;SDS011;39167;52.794;6.892;2022-07-23T02:30:04;5.22;;;3.22;;
53281;SDS011;39167;52.794;6.892;2022-07-23T02:32:30;5.63;;;3.30;;
53281;SDS011;39167;52.794;6.892;2022-07-23T02:34:56;4.85;;;2.90;;
53281;SDS011;39167;52.794;6.892;2022-07-23T02:37:22;7.22;;;3.67;;
53281;SDS011;39167;52.794;6.892;2022-07-23T02:39:48;5.25;;;3.47;;
53281;SDS011;39167;52.794;6.892;2022-07-23T02:42:14;5.28;;;3.40;;
53281;SDS011;39167;52.794;6.892;2022-07-23T02:44:40;6.13;;;3.22;;
53281;SDS011;39167;52.794;6.892;2022-07-23T02:47:06;6.85;;;3.55;;
53281;SDS011;39167;52.794;6.892;2022-07-23T02:49:32;4.57;;;3.42;;
53281;SDS011;39167;52.794;6.892;2022-07-23T02:51:57;5.55;;;3.53;;
53281;SDS011;39167;52.794;6.892;2022-07-23T02:54:23;5.25;;;3.42;;
53281;SDS011;39167;52.794;6.892;2022-07-23T02:56:49;4.80;;;3.50;;
53281;SDS011;39167;52.794;6.892;2022-07-23T02:59:16;6.55;;;3.30;;
53281;SDS011;39167;52.794;6.892;2022-07-23T03:01:42;4.70;;;3.28;;
53281;SDS011;39167;52.794;6.892;2022-07-23T03:04:08;6.63;;;3.78;;
53281;SDS011;39167;52.794;6.892;2022-07-23T03:06:34;7.05;;;3.80;;
53281;SDS011;39167;52.794;6.892;2022-07-23T03:08:59;7.00;;;3.88;;
53281;SDS011;39167;52.794;6.892;2022-07-23T03:11:25;6.05;;;3.30;;
53281;SDS011;39167;52.794;6.892;2022-07-23T03:13:51;5.90;;;3.88;;
53281;SDS011;39167;52.794;6.892;2022-07-23T03:16:16;6.97;;;3.63;;
53281;SDS011;39167;52.794;6.892;2022-07-23T03:18:42;4.60;;;3.65;;
53281;SDS011;39167;52.794;6.892;2022-07-23T03:21:08;6.47;;;3.55;;
53281;SDS011;39167;52.794;6.892;2022-07-23T03:23:33;6.28;;;4.13;;
53281;SDS011;39167;52.794;6.892;2022-07-23T03:25:59;6.43;;;4.13;;
53281;SDS011;39167;52.794;6.892;2022-07-23T03:28:25;6.53;;;3.45;;
53281;SDS011;39167;52.794;6.892;2022-07-23T03:30:51;5.13;;;3.30;;
53281;SDS011;39167;52.794;6.892;2022-07-23T03:33:17;7.15;;;3.63;;
53281;SDS011;39167;52.794;6.892;2022-07-23T03:35:44;5.18;;;3.47;;
53281;SDS011;39167;52.794;6.892;2022-07-23T03:38:10;5.88;;;3.00;;
53281;SDS011;39167;52.794;6.892;2022-07-23T03:40:35;4.05;;;2.47;;
53281;SDS011;39167;52.794;6.892;2022-07-23T03:43:01;5.32;;;2.97;;
53281;SDS011;39167;52.794;6.892;2022-07-23T03:45:27;3.42;;;2.05;;
53281;SDS011;39167;52.794;6.892;2022-07-23T03:47:54;3.88;;;1.90;;
53281;SDS011;39167;52.794;6.892;2022-07-23T03:50:20;4.10;;;1.90;;
53281;SDS011;39167;52.794;6.892;2022-07-23T03:52:45;1.98;;;1.40;;
53281;SDS011;39167;52.794;6.892;2022-07-23T03:55:11;4.05;;;2.17;;
53281;SDS011;39167;52.794;6.892;2022-07-23T03:57:37;3.85;;;1.70;;
53281;SDS011;39167;52.794;6.892;2022-07-23T04:00:03;2.70;;;1.45;;
53281;SDS011;39167;52.794;6.892;2022-07-23T04:02:31;3.20;;;1.70;;
53281;SDS011;39167;52.794;6.892;2022-07-23T04:04:56;5.45;;;2.78;;
53281;SDS011;39167;52.794;6.892;2022-07-23T04:07:22;3.67;;;2.22;;
53281;SDS011;39167;52.794;6.892;2022-07-23T04:09:48;4.85;;;2.38;;
53281;SDS011;39167;52.794;6.892;2022-07-23T04:12:14;6.70;;;3.35;;
53281;SDS011;39167;52.794;6.892;2022-07-23T04:14:40;8.35;;;2.85;;
53281;SDS011;39167;52.794;6.892;2022-07-23T04:17:05;7.88;;;3.85;;
53281;SDS011;39167;52.794;6.892;2022-07-23T04:19:31;4.53;;;3.28;;
53281;SDS011;39167;52.794;6.892;2022-07-23T04:21:57;12.90;;;4.45;;
53281;SDS011;39167;52.794;6.892;2022-07-23T04:24:23;8.18;;;4.10;;
53281;SDS011;39167;52.794;6.892;2022-07-23T04:26:49;6.88;;;4.20;;
53281;SDS011;39167;52.794;6.892;2022-07-23T04:29:14;7.47;;;4.13;;
53281;SDS011;39167;52.794;6.892;2022-07-23T04:31:40;7.95;;;4.03;;
53281;SDS011;39167;52.794;6.892;2022-07-23T04:34:06;7.38;;;4.38;;
53281;SDS011;39167;52.794;6.892;2022-07-23T04:36:31;13.40;;;5.15;;
53281;SDS011;39167;52.794;6.892;2022-07-23T04:38:57;7.82;;;4.20;;
53281;SDS011;39167;52.794;6.892;2022-07-23T04:41:23;6.25;;;3.95;;
53281;SDS011;39167;52.794;6.892;2022-07-23T04:43:48;8.95;;;4.18;;
53281;SDS011;39167;52.794;6.892;2022-07-23T04:46:14;7.63;;;5.35;;
53281;SDS011;39167;52.794;6.892;2022-07-23T04:48:40;7.30;;;4.50;;
53281;SDS011;39167;52.794;6.892;2022-07-23T04:51:07;6.88;;;4.47;;
53281;SDS011;39167;52.794;6.892;2022-07-23T04:53:33;6.90;;;4.45;;
53281;SDS011;39167;52.794;6.892;2022-07-23T04:55:58;9.60;;;5.28;;
53281;SDS011;39167;52.794;6.892;2022-07-23T04:58:24;6.80;;;4.82;;
53281;SDS011;39167;52.794;6.892;2022-07-23T05:00:50;6.72;;;4.18;;
53281;SDS011;39167;52.794;6.892;2022-07-23T05:03:16;6.72;;;3.95;;
53281;SDS011;39167;52.794;6.892;2022-07-23T05:05:42;8.30;;;4.28;;
53281;SDS011;39167;52.794;6.892;2022-07-23T05:08:08;6.82;;;4.50;;
53281;SDS011;39167;52.794;6.892;2022-07-23T05:10:34;8.30;;;3.80;;
53281;SDS011;39167;52.794;6.892;2022-07-23T05:12:59;10.70;;;4.72;;
53281;SDS011;39167;52.794;6.892;2022-07-23T05:15:25;8.90;;;4.43;;
53281;SDS011;39167;52.794;6.892;2022-07-23T05:17:51;9.85;;;4.10;;
53281;SDS011;39167;52.794;6.892;2022-07-23T05:20:16;8.95;;;3.75;;
53281;SDS011;39167;52.794;6.892;2022-07-23T05:22:42;7.07;;;3.80;;
53281;SDS011;39167;52.794;6.892;2022-07-23T05:25:08;7.88;;;3.97;;
53281;SDS011;39167;52.794;6.892;2022-07-23T05:27:34;7.00;;;4.15;;
53281;SDS011;39167;52.794;6.892;2022-07-23T05:30:00;7.50;;;4.22;;
53281;SDS011;39167;52.794;6.892;2022-07-23T05:32:26;10.55;;;4.90;;
53281;SDS011;39167;52.794;6.892;2022-07-23T05:34:51;7.18;;;3.65;;
53281;SDS011;39167;52.794;6.892;2022-07-23T05:37:17;16.23;;;4.03;;
53281;SDS011;39167;52.794;6.892;2022-07-23T05:39:43;7.50;;;4.20;;
53281;SDS011;39167;52.794;6.892;2022-07-23T05:42:08;8.27;;;4.35;;
53281;SDS011;39167;52.794;6.892;2022-07-23T05:44:34;7.97;;;4.22;;
53281;SDS011;39167;52.794;6.892;2022-07-23T05:47:00;8.43;;;4.40;;
53281;SDS011;39167;52.794;6.892;2022-07-23T05:49:26;7.75;;;3.85;;
53281;SDS011;39167;52.794;6.892;2022-07-23T05:51:52;10.52;;;4.43;;
53281;SDS011;39167;52.794;6.892;2022-07-23T05:54:17;9.25;;;4.75;;
53281;SDS011;39167;52.794;6.892;2022-07-23T05:56:43;7.60;;;4.22;;
53281;SDS011;39167;52.794;6.892;2022-07-23T05:59:09;9.65;;;4.68;;
53281;SDS011;39167;52.794;6.892;2022-07-23T06:01:37;9.45;;;4.18;;
53281;SDS011;39167;52.794;6.892;2022-07-23T06:04:02;8.00;;;4.32;;
53281;SDS011;39167;52.794;6.892;2022-07-23T06:06:28;7.88;;;4.43;;
53281;SDS011;39167;52.794;6.892;2022-07-23T06:08:54;7.18;;;4.00;;
53281;SDS011;39167;52.794;6.892;2022-07-23T06:11:19;8.07;;;4.97;;
53281;SDS011;39167;52.794;6.892;2022-07-23T06:13:45;13.05;;;4.07;;
53281;SDS011;39167;52.794;6.892;2022-07-23T06:16:11;5.82;;;3.95;;
53281;SDS011;39167;52.794;6.892;2022-07-23T06:18:36;5.93;;;3.35;;
53281;SDS011;39167;52.794;6.892;2022-07-23T06:21:02;4.72;;;2.92;;
53281;SDS011;39167;52.794;6.892;2022-07-23T06:23:28;5.78;;;2.65;;
53281;SDS011;39167;52.794;6.892;2022-07-23T06:25:54;6.10;;;2.50;;
53281;SDS011;39167;52.794;6.892;2022-07-23T06:28:20;6.38;;;2.58;;
53281;SDS011;39167;52.794;6.892;2022-07-23T06:30:45;8.60;;;2.42;;
53281;SDS011;39167;52.794;6.892;2022-07-23T06:33:11;9.20;;;2.65;;
53281;SDS011;39167;52.794;6.892;2022-07-23T06:35:37;4.53;;;2.10;;
53281;SDS011;39167;52.794;6.892;2022-07-23T06:38:03;7.55;;;2.33;;
53281;SDS011;39167;52.794;6.892;2022-07-23T06:40:28;8.05;;;2.28;;
53281;SDS011;39167;52.794;6.892;2022-07-23T06:42:54;4.43;;;1.90;;
53281;SDS011;39167;52.794;6.892;2022-07-23T06:45:20;5.32;;;1.60;;
53281;SDS011;39167;52.794;6.892;2022-07-23T06:47:46;5.80;;;2.08;;
53281;SDS011;39167;52.794;6.892;2022-07-23T06:50:12;6.32;;;2.30;;
53281;SDS011;39167;52.794;6.892;2022-07-23T06:52:37;5.05;;;2.05;;
53281;SDS011;39167;52.794;6.892;2022-07-23T06:55:03;5.72;;;2.10;;
53281;SDS011;39167;52.794;6.892;2022-07-23T06:57:29;5.78;;;2.05;;
53281;SDS011;39167;52.794;6.892;2022-07-23T06:59:55;2.78;;;1.60;;
53281;SDS011;39167;52.794;6.892;2022-07-23T07:02:20;4.38;;;1.88;;
53281;SDS011;39167;52.794;6.892;2022-07-23T07:04:46;6.38;;;2.70;;
53281;SDS011;39167;52.794;6.892;2022-07-23T07:07:12;5.75;;;2.20;;
53281;SDS011;39167;52.794;6.892;2022-07-23T07:09:38;7.72;;;2.78;;
53281;SDS011;39167;52.794;6.892;2022-07-23T07:12:04;4.53;;;1.85;;
53281;SDS011;39167;52.794;6.892;2022-07-23T07:14:30;5.93;;;1.83;;
53281;SDS011;39167;52.794;6.892;2022-07-23T07:16:56;4.30;;;1.70;;
53281;SDS011;39167;52.794;6.892;2022-07-23T07:19:21;5.40;;;1.60;;
53281;SDS011;39167;52.794;6.892;2022-07-23T07:21:47;8.85;;;1.48;;
53281;SDS011;39167;52.794;6.892;2022-07-23T07:24:13;4.88;;;1.52;;
53281;SDS011;39167;52.794;6.892;2022-07-23T07:26:38;8.18;;;1.58;;
53281;SDS011;39167;52.794;6.892;2022-07-23T07:29:04;5.80;;;1.40;;
53281;SDS011;39167;52.794;6.892;2022-07-23T07:31:31;3.65;;;1.20;;
53281;SDS011;39167;52.794;6.892;2022-07-23T07:33:57;3.55;;;1.58;;
53281;SDS011;39167;52.794;6.892;2022-07-23T07:36:23;3.15;;;1.35;;
53281;SDS011;39167;52.794;6.892;2022-07-23T07:38:49;4.88;;;1.40;;
53281;SDS011;39167;52.794;6.892;2022-07-23T07:41:15;3.85;;;1.13;;
53281;SDS011;39167;52.794;6.892;2022-07-23T07:43:41;2.65;;;1.48;;
53281;SDS011;39167;52.794;6.892;2022-07-23T07:46:06;3.20;;;0.90;;
53281;SDS011;39167;52.794;6.892;2022-07-23T07:48:36;6.25;;;1.20;;
53281;SDS011;39167;52.794;6.892;2022-07-23T07:51:03;3.15;;;1.15;;
53281;SDS011;39167;52.794;6.892;2022-07-23T07:53:29;1.92;;;1.00;;
53281;SDS011;39167;52.794;6.892;2022-07-23T07:55:55;2.53;;;1.17;;
53281;SDS011;39167;52.794;6.892;2022-07-23T07:58:21;4.20;;;1.33;;
53281;SDS011;39167;52.794;6.892;2022-07-23T08:00:47;2.13;;;1.10;;
53281;SDS011;39167;52.794;6.892;2022-07-23T08:03:12;2.47;;;1.02;;
53281;SDS011;39167;52.794;6.892;2022-07-23T08:05:38;7.40;;;1.00;;
53281;SDS011;39167;52.794;6.892;2022-07-23T08:08:04;1.65;;;1.02;;
53281;SDS011;39167;52.794;6.892;2022-07-23T08:10:30;1.20;;;0.80;;
53281;SDS011;39167;52.794;6.892;2022-07-23T08:12:57;5.80;;;1.30;;
53281;SDS011;39167;52.794;6.892;2022-07-23T08:15:25;3.95;;;1.33;;
53281;SDS011;39167;52.794;6.892;2022-07-23T08:17:51;4.03;;;1.25;;
53281;SDS011;39167;52.794;6.892;2022-07-23T08:20:18;2.38;;;1.02;;
53281;SDS011;39167;52.794;6.892;2022-07-23T08:22:46;4.88;;;1.50;;
53281;SDS011;39167;52.794;6.892;2022-07-23T08:25:15;3.78;;;1.27;;
53281;SDS011;39167;52.794;6.892;2022-07-23T08:27:44;1.55;;;0.98;;
53281;SDS011;39167;52.794;6.892;2022-07-23T08:30:10;2.72;;;1.10;;
53281;SDS011;39167;52.794;6.892;2022-07-23T08:32:49;3.03;;;1.00;;
53281;SDS011;39167;52.794;6.892;2022-07-23T08:35:15;1.20;;;0.68;;
53281;SDS011;39167;52.794;6.892;2022-07-23T08:37:42;3.40;;;0.90;;
53281;SDS011;39167;52.794;6.892;2022-07-23T08:40:08;2.15;;;0.90;;
53281;SDS011;39167;52.794;6.892;2022-07-23T08:42:34;2.30;;;0.80;;
53281;SDS011;39167;52.794;6.892;2022-07-23T08:45:00;1.38;;;0.57;;
53281;SDS011;39167;52.794;6.892;2022-07-23T08:47:28;3.92;;;0.85;;
53281;SDS011;39167;52.794;6.892;2022-07-23T08:49:55;2.42;;;0.60;;
53281;SDS011;39167;52.794;6.892;2022-07-23T08:52:23;5.63;;;1.92;;
53281;SDS011;39167;52.794;6.892;2022-07-23T08:54:49;2.55;;;0.80;;
53281;SDS011;39167;52.794;6.892;2022-07-23T08:57:16;1.77;;;0.85;;
53281;SDS011;39167;52.794;6.892;2022-07-23T08:59:42;1.83;;;0.55;;
53281;SDS011;39167;52.794;6.892;2022-07-23T09:02:08;2.42;;;0.70;;
53281;SDS011;39167;52.794;6.892;2022-07-23T09:04:33;1.52;;;0.60;;
53281;SDS011;39167;52.794;6.892;2022-07-23T09:07:00;1.48;;;0.70;;
53281;SDS011;39167;52.794;6.892;2022-07-23T09:09:27;1.67;;;0.55;;
53281;SDS011;39167;52.794;6.892;2022-07-23T09:12:02;1.52;;;0.70;;
53281;SDS011;39167;52.794;6.892;2022-07-23T09:14:42;2.10;;;0.60;;
53281;SDS011;39167;52.794;6.892;2022-07-23T09:17:12;2.45;;;0.70;;
53281;SDS011;39167;52.794;6.892;2022-07-23T09:19:40;1.92;;;0.60;;
53281;SDS011;39167;52.794;6.892;2022-07-23T09:25:07;1.77;;;0.60;;
53281;SDS011;39167;52.794;6.892;2022-07-23T09:30:10;2.35;;;0.52;;
53281;SDS011;39167;52.794;6.892;2022-07-23T09:32:36;2.08;;;0.70;;
53281;SDS011;39167;52.794;6.892;2022-07-23T09:35:03;0.98;;;0.55;;
53281;SDS011;39167;52.794;6.892;2022-07-23T09:37:29;1.00;;;0.50;;
53281;SDS011;39167;52.794;6.892;2022-07-23T09:40:02;2.10;;;0.77;;
53281;SDS011;39167;52.794;6.892;2022-07-23T09:42:33;1.70;;;0.50;;
53281;SDS011;39167;52.794;6.892;2022-07-23T09:44:59;1.02;;;0.57;;
53281;SDS011;39167;52.794;6.892;2022-07-23T09:47:27;3.22;;;0.73;;
53281;SDS011;39167;52.794;6.892;2022-07-23T09:52:28;0.38;;;0.35;;
53281;SDS011;39167;52.794;6.892;2022-07-23T09:54:59;0.82;;;0.43;;
53281;SDS011;39167;52.794;6.892;2022-07-23T09:57:26;1.38;;;0.65;;
53281;SDS011;39167;52.794;6.892;2022-07-23T09:59:52;1.65;;;0.52;;
53281;SDS011;39167;52.794;6.892;2022-07-23T10:02:21;1.55;;;0.60;;
53281;SDS011;39167;52.794;6.892;2022-07-23T10:04:48;1.75;;;0.47;;
53281;SDS011;39167;52.794;6.892;2022-07-23T10:07:17;2.55;;;0.70;;
53281;SDS011;39167;52.794;6.892;2022-07-23T10:09:44;2.08;;;0.93;;
53281;SDS011;39167;52.794;6.892;2022-07-23T10:12:14;1.98;;;0.70;;
53281;SDS011;39167;52.794;6.892;2022-07-23T10:14:58;0.95;;;0.60;;
53281;SDS011;39167;52.794;6.892;2022-07-23T10:17:25;1.08;;;0.57;;
53281;SDS011;39167;52.794;6.892;2022-07-23T10:19:52;1.85;;;0.47;;
53281;SDS011;39167;52.794;6.892;2022-07-23T10:22:19;1.77;;;0.50;;
53281;SDS011;39167;52.794;6.892;2022-07-23T10:30:31;1.65;;;0.70;;
53281;SDS011;39167;52.794;6.892;2022-07-23T10:33:11;2.35;;;0.55;;
53281;SDS011;39167;52.794;6.892;2022-07-23T10:38:22;1.13;;;0.50;;
53281;SDS011;39167;52.794;6.892;2022-07-23T10:43:27;1.50;;;0.80;;
53281;SDS011;39167;52.794;6.892;2022-07-23T10:45:54;3.28;;;0.52;;
53281;SDS011;39167;52.794;6.892;2022-07-23T10:48:24;2.80;;;0.63;;
53281;SDS011;39167;52.794;6.892;2022-07-23T10:56:17;1.73;;;0.57;;
53281;SDS011;39167;52.794;6.892;2022-07-23T10:59:06;2.85;;;0.50;;
53281;SDS011;39167;52.794;6.892;2022-07-23T11:01:38;3.03;;;0.63;;
53281;SDS011;39167;52.794;6.892;2022-07-23T11:04:04;1.23;;;0.75;;
53281;SDS011;39167;52.794;6.892;2022-07-23T11:09:29;1.42;;;0.60;;
53281;SDS011;39167;52.794;6.892;2022-07-23T11:17:23;1.98;;;0.75;;
53281;SDS011;39167;52.794;6.892;2022-07-23T11:20:35;3.45;;;1.63;;
53281;SDS011;39167;52.794;6.892;2022-07-23T11:22:45;5.07;;;0.95;;
53281;SDS011;39167;52.794;6.892;2022-07-23T11:27:45;1.75;;;0.60;;
53281;SDS011;39167;52.794;6.892;2022-07-23T11:35:41;1.65;;;0.90;;
53281;SDS011;39167;52.794;6.892;2022-07-23T11:40:42;1.23;;;0.82;;
53281;SDS011;39167;52.794;6.892;2022-07-23T11:43:10;1.33;;;0.80;;
53281;SDS011;39167;52.794;6.892;2022-07-23T11:48:07;3.33;;;0.90;;
53281;SDS011;39167;52.794;6.892;2022-07-23T11:50:34;1.80;;;0.73;;
53281;SDS011;39167;52.794;6.892;2022-07-23T11:53:01;1.25;;;0.70;;
53281;SDS011;39167;52.794;6.892;2022-07-23T11:55:27;2.17;;;0.80;;
53281;SDS011;39167;52.794;6.892;2022-07-23T11:57:53;2.45;;;0.90;;
53281;SDS011;39167;52.794;6.892;2022-07-23T12:00:21;1.95;;;1.10;;
53281;SDS011;39167;52.794;6.892;2022-07-23T12:02:50;1.73;;;0.90;;
53281;SDS011;39167;52.794;6.892;2022-07-23T12:05:21;1.77;;;1.17;;
53281;SDS011;39167;52.794;6.892;2022-07-23T12:07:50;2.22;;;1.13;;
53281;SDS011;39167;52.794;6.892;2022-07-23T12:13:08;1.50;;;1.00;;
53281;SDS011;39167;52.794;6.892;2022-07-23T12:15:46;3.00;;;1.20;;
53281;SDS011;39167;52.794;6.892;2022-07-23T12:18:15;3.70;;;1.40;;
53281;SDS011;39167;52.794;6.892;2022-07-23T12:20:45;1.42;;;0.90;;
53281;SDS011;39167;52.794;6.892;2022-07-23T12:23:13;4.03;;;1.17;;
53281;SDS011;39167;52.794;6.892;2022-07-23T12:25:42;2.15;;;1.30;;
53281;SDS011;39167;52.794;6.892;2022-07-23T12:28:16;3.38;;;1.30;;
53281;SDS011;39167;52.794;6.892;2022-07-23T12:30:47;4.18;;;1.40;;
53281;SDS011;39167;52.794;6.892;2022-07-23T12:33:14;2.47;;;1.10;;
53281;SDS011;39167;52.794;6.892;2022-07-23T12:35:46;3.63;;;1.35;;
53281;SDS011;39167;52.794;6.892;2022-07-23T12:38:14;2.25;;;0.88;;
53281;SDS011;39167;52.794;6.892;2022-07-23T12:40:46;2.17;;;1.10;;
53281;SDS011;39167;52.794;6.892;2022-07-23T12:45:47;3.13;;;1.45;;
53281;SDS011;39167;52.794;6.892;2022-07-23T12:56:09;2.42;;;1.20;;
53281;SDS011;39167;52.794;6.892;2022-07-23T13:03:55;2.83;;;1.30;;
53281;SDS011;39167;52.794;6.892;2022-07-23T13:06:20;2.67;;;1.20;;
53281;SDS011;39167;52.794;6.892;2022-07-23T13:08:46;4.22;;;1.05;;
53281;SDS011;39167;52.794;6.892;2022-07-23T13:11:12;3.45;;;1.40;;
53281;SDS011;39167;52.794;6.892;2022-07-23T13:13:38;2.00;;;1.35;;
53281;SDS011;39167;52.794;6.892;2022-07-23T13:16:04;3.75;;;1.40;;
53281;SDS011;39167;52.794;6.892;2022-07-23T13:18:30;2.90;;;1.33;;
53281;SDS011;39167;52.794;6.892;2022-07-23T13:20:56;2.05;;;1.35;;
53281;SDS011;39167;52.794;6.892;2022-07-23T13:23:22;2.08;;;1.33;;
53281;SDS011;39167;52.794;6.892;2022-07-23T13:25:49;3.17;;;1.55;;
53281;SDS011;39167;52.794;6.892;2022-07-23T13:28:15;2.55;;;1.40;;
53281;SDS011;39167;52.794;6.892;2022-07-23T13:30:42;2.40;;;1.52;;
53281;SDS011;39167;52.794;6.892;2022-07-23T13:33:09;2.13;;;1.27;;
53281;SDS011;39167;52.794;6.892;2022-07-23T13:35:35;2.60;;;1.17;;
53281;SDS011;39167;52.794;6.892;2022-07-23T13:38:02;1.95;;;1.17;;
53281;SDS011;39167;52.794;6.892;2022-07-23T13:40:29;3.05;;;1.15;;
53281;SDS011;39167;52.794;6.892;2022-07-23T13:42:55;2.63;;;1.50;;
53281;SDS011;39167;52.794;6.892;2022-07-23T13:45:21;3.20;;;1.55;;
53281;SDS011;39167;52.794;6.892;2022-07-23T13:47:47;3.17;;;1.55;;
53281;SDS011;39167;52.794;6.892;2022-07-23T13:50:13;2.22;;;1.50;;
53281;SDS011;39167;52.794;6.892;2022-07-23T13:52:41;2.55;;;1.45;;
53281;SDS011;39167;52.794;6.892;2022-07-23T13:55:08;3.28;;;1.27;;
53281;SDS011;39167;52.794;6.892;2022-07-23T13:57:34;3.00;;;1.33;;
53281;SDS011;39167;52.794;6.892;2022-07-23T14:00:00;2.67;;;1.45;;
53281;SDS011;39167;52.794;6.892;2022-07-23T14:02:25;2.08;;;1.30;;
53281;SDS011;39167;52.794;6.892;2022-07-23T14:04:51;2.28;;;1.33;;
53281;SDS011;39167;52.794;6.892;2022-07-23T14:07:18;2.92;;;1.40;;
53281;SDS011;39167;52.794;6.892;2022-07-23T14:09:44;2.30;;;1.38;;
53281;SDS011;39167;52.794;6.892;2022-07-23T14:12:10;2.00;;;1.33;;
53281;SDS011;39167;52.794;6.892;2022-07-23T14:14:36;3.15;;;1.20;;
53281;SDS011;39167;52.794;6.892;2022-07-23T14:17:01;3.10;;;1.70;;
53281;SDS011;39167;52.794;6.892;2022-07-23T14:19:27;3.80;;;1.45;;
53281;SDS011;39167;52.794;6.892;2022-07-23T14:21:54;2.97;;;1.52;;
53281;SDS011;39167;52.794;6.892;2022-07-23T14:24:19;1.48;;;1.20;;
53281;SDS011;39167;52.794;6.892;2022-07-23T14:26:45;4.00;;;1.48;;
53281;SDS011;39167;52.794;6.892;2022-07-23T14:29:11;2.88;;;1.42;;
53281;SDS011;39167;52.794;6.892;2022-07-23T14:31:37;3.30;;;1.42;;
53281;SDS011;39167;52.794;6.892;2022-07-23T14:34:03;2.63;;;1.45;;
53281;SDS011;39167;52.794;6.892;2022-07-23T14:36:28;3.28;;;1.60;;
53281;SDS011;39167;52.794;6.892;2022-07-23T14:38:54;1.88;;;1.13;;
53281;SDS011;39167;52.794;6.892;2022-07-23T14:41:20;1.98;;;1.25;;
53281;SDS011;39167;52.794;6.892;2022-07-23T14:43:46;2.28;;;1.30;;
53281;SDS011;39167;52.794;6.892;2022-07-23T14:46:12;3.85;;;1.25;;
53281;SDS011;39167;52.794;6.892;2022-07-23T14:48:38;2.53;;;1.30;;
53281;SDS011;39167;52.794;6.892;2022-07-23T14:51:04;2.83;;;1.35;;
53281;SDS011;39167;52.794;6.892;2022-07-23T14:53:30;2.60;;;1.40;;
53281;SDS011;39167;52.794;6.892;2022-07-23T14:55:56;3.15;;;1.27;;
53281;SDS011;39167;52.794;6.892;2022-07-23T14:58:24;2.90;;;1.40;;
53281;SDS011;39167;52.794;6.892;2022-07-23T15:00:50;2.33;;;1.42;;
53281;SDS011;39167;52.794;6.892;2022-07-23T15:03:15;3.22;;;1.38;;
53281;SDS011;39167;52.794;6.892;2022-07-23T15:05:41;2.75;;;1.30;;
53281;SDS011;39167;52.794;6.892;2022-07-23T15:08:07;2.42;;;1.25;;
53281;SDS011;39167;52.794;6.892;2022-07-23T15:10:33;2.10;;;1.23;;
53281;SDS011;39167;52.794;6.892;2022-07-23T15:12:59;2.60;;;1.40;;
53281;SDS011;39167;52.794;6.892;2022-07-23T15:15:25;2.95;;;1.45;;
53281;SDS011;39167;52.794;6.892;2022-07-23T15:17:50;2.35;;;1.10;;
53281;SDS011;39167;52.794;6.892;2022-07-23T15:20:16;3.25;;;1.38;;
53281;SDS011;39167;52.794;6.892;2022-07-23T15:22:42;2.55;;;1.33;;
53281;SDS011;39167;52.794;6.892;2022-07-23T15:25:10;3.83;;;1.50;;
53281;SDS011;39167;52.794;6.892;2022-07-23T15:27:36;2.28;;;1.67;;
53281;SDS011;39167;52.794;6.892;2022-07-23T15:30:02;1.77;;;1.27;;
53281;SDS011;39167;52.794;6.892;2022-07-23T15:32:29;3.67;;;1.45;;
53281;SDS011;39167;52.794;6.892;2022-07-23T15:34:55;3.05;;;1.33;;
53281;SDS011;39167;52.794;6.892;2022-07-23T15:37:21;2.47;;;1.42;;
53281;SDS011;39167;52.794;6.892;2022-07-23T15:39:48;2.22;;;1.15;;
53281;SDS011;39167;52.794;6.892;2022-07-23T15:42:14;2.70;;;1.30;;
53281;SDS011;39167;52.794;6.892;2022-07-23T15:44:41;3.92;;;1.38;;
53281;SDS011;39167;52.794;6.892;2022-07-23T15:47:10;3.03;;;1.10;;
53281;SDS011;39167;52.794;6.892;2022-07-23T15:49:38;3.35;;;1.35;;